Time;durP1;ratioP1;P1;durP2;ratioP2;P2;SDS_P1;SDS_P2;PMS_P1;PMS_P2;Temp;Humidity;BMP_temperature;BMP_pressure;BME280_temperature;BME280_humidity;BME280_pressure;Samples;Min_cycle;Max_cycle;Signal;HPM_P1;HPM_P2
2022/11/01 00:01:46;;;;;;;4.75;1.67;;;14.10;94.80;;;;;;4841022;29;20539;-89
2022/11/01 00:04:16;;;;;;;5.25;2.65;;;14.10;94.80;;;;;;4860276;29;20053;-89
2022/11/01 00:06:46;;;;;;;4.50;1.92;;;14.10;94.80;;;;;;4842037;29;20046;-89
2022/11/01 00:09:14;;;;;;;4.25;1.52;;;14.10;94.80;;;;;;4827352;29;20060;-89
2022/11/01 00:11:41;;;;;;;5.03;2.08;;;14.10;94.80;;;;;;4826847;29;20054;-89
2022/11/01 00:14:17;;;;;;;2.72;1.13;;;14.20;94.80;;;;;;4847613;29;20048;-89
2022/11/01 00:16:46;;;;;;;3.72;1.80;;;14.20;94.70;;;;;;4849200;29;20053;-89
2022/11/01 00:19:15;;;;;;;4.13;1.55;;;14.20;94.70;;;;;;4849868;29;20061;-89
2022/11/01 00:21:45;;;;;;;4.70;2.30;;;14.30;94.70;;;;;;4832410;29;20052;-89
2022/11/01 00:24:14;;;;;;;3.53;1.57;;;14.30;94.60;;;;;;4860495;29;20557;-89
2022/11/01 00:26:41;;;;;;;3.97;1.58;;;14.30;94.60;;;;;;4857171;29;20046;-89
2022/11/01 00:29:11;;;;;;;4.80;2.25;;;14.40;94.60;;;;;;4811365;29;20271;-87
2022/11/01 00:31:39;;;;;;;3.75;2.08;;;14.40;94.50;;;;;;4828915;29;20126;-87
2022/11/01 00:34:07;;;;;;;4.40;2.10;;;14.40;94.50;;;;;;4837945;29;20050;-87
2022/11/01 00:36:34;;;;;;;4.63;2.03;;;14.50;94.50;;;;;;4843329;29;20507;-87
2022/11/01 00:39:02;;;;;;;5.50;2.47;;;14.50;94.50;;;;;;4843979;29;20042;-88
2022/11/01 00:41:29;;;;;;;4.47;2.65;;;14.50;94.40;;;;;;4824245;29;20507;-87
2022/11/01 00:43:56;;;;;;;8.15;2.70;;;14.50;94.40;;;;;;4837429;29;20045;-87
2022/11/01 00:46:26;;;;;;;5.35;1.98;;;14.50;94.40;;;;;;4814961;29;20042;-88
2022/11/01 00:48:53;;;;;;;5.93;2.55;;;14.50;94.40;;;;;;4816793;29;20050;-87
2022/11/01 00:51:20;;;;;;;4.20;2.03;;;14.60;94.40;;;;;;4841089;29;20102;-87
2022/11/01 00:53:51;;;;;;;6.35;2.70;;;14.60;94.40;;;;;;4854863;29;20084;-87
2022/11/01 00:56:18;;;;;;;5.10;2.63;;;14.60;94.40;;;;;;4810890;29;20140;-87
2022/11/01 00:58:48;;;;;;;4.50;2.08;;;14.60;94.40;;;;;;4825762;29;20065;-87
2022/11/01 01:01:15;;;;;;;5.30;2.58;;;14.60;94.30;;;;;;4843290;29;20065;-87
2022/11/01 01:03:42;;;;;;;4.00;2.17;;;14.70;94.40;;;;;;4830052;29;20130;-87
2022/11/01 01:06:09;;;;;;;6.60;2.33;;;14.70;94.40;;;;;;4812990;29;20061;-87
2022/11/01 01:08:36;;;;;;;5.95;2.03;;;14.70;94.30;;;;;;4820758;29;20065;-87
2022/11/01 01:11:04;;;;;;;3.72;1.85;;;14.70;94.30;;;;;;4813741;29;20054;-87
2022/11/01 01:13:31;;;;;;;4.28;1.90;;;14.70;94.30;;;;;;4822620;29;20054;-87
2022/11/01 01:15:59;;;;;;;8.65;3.15;;;14.70;94.40;;;;;;4831773;29;20149;-87
2022/11/01 01:18:26;;;;;;;7.28;2.35;;;14.80;94.40;;;;;;4833682;29;20142;-87
2022/11/01 01:21:04;;;;;;;4.68;2.20;;;14.80;94.30;;;;;;4846200;29;20456;-87
2022/11/01 01:23:31;;;;;;;4.80;2.60;;;14.80;94.30;;;;;;4832862;29;20069;-87
2022/11/01 01:25:58;;;;;;;4.32;2.25;;;14.90;94.30;;;;;;4834738;29;20050;-87
2022/11/01 01:28:25;;;;;;;4.68;2.28;;;14.90;94.20;;;;;;4836784;29;20111;-87
2022/11/01 01:30:53;;;;;;;3.75;2.05;;;14.90;94.20;;;;;;4840962;29;20049;-87
2022/11/01 01:33:20;;;;;;;4.90;1.88;;;14.90;94.20;;;;;;4839853;29;20049;-87
2022/11/01 01:35:51;;;;;;;4.55;1.95;;;15.00;94.20;;;;;;4843706;29;20602;-87
2022/11/01 01:38:19;;;;;;;4.25;1.85;;;15.00;94.20;;;;;;4828052;29;20051;-87
2022/11/01 01:40:46;;;;;;;4.65;1.60;;;15.00;94.20;;;;;;4834414;29;20045;-88
2022/11/01 01:43:13;;;;;;;4.25;1.90;;;15.00;94.20;;;;;;4838128;29;20052;-88
2022/11/01 01:45:41;;;;;;;3.97;1.52;;;14.90;94.20;;;;;;4845529;29;20113;-87
2022/11/01 01:48:13;;;;;;;5.43;2.22;;;14.90;94.30;;;;;;4847274;29;20414;-87
2022/11/01 01:50:50;;;;;;;;;;;14.90;94.40;;;;;;4847508;29;20057;-88
2022/11/01 01:53:26;;;;;;;5.10;2.60;;;14.80;94.40;;;;;;4837484;29;19931;-88
2022/11/01 01:56:03;;;;;;;7.25;2.65;;;14.80;94.30;;;;;;4843394;29;20052;-88
2022/11/01 01:58:47;;;;;;;5.35;2.47;;;14.80;94.30;;;;;;4836368;29;20050;-87
2022/11/01 02:01:14;;;;;;;6.53;2.55;;;14.80;94.40;;;;;;4844319;29;20481;-87
2022/11/01 02:03:42;;;;;;;6.72;2.42;;;14.80;94.50;;;;;;4840096;29;20046;-88
2022/11/01 02:06:11;;;;;;;3.60;1.92;;;14.70;94.50;;;;;;4842536;29;20128;-87
2022/11/01 02:08:45;;;;;;;6.18;1.90;;;14.70;94.50;;;;;;4827817;29;20499;-87
2022/11/01 02:11:13;;;;;;;5.55;2.17;;;14.70;94.50;;;;;;4825078;29;20054;-87
2022/11/01 02:13:40;;;;;;;9.02;2.33;;;14.70;94.50;;;;;;4824690;29;20055;-87
2022/11/01 02:16:20;;;;;;;5.38;2.08;;;14.70;94.50;;;;;;4838795;29;20086;-87
2022/11/01 02:19:11;;;;;;;4.32;1.83;;;14.70;94.50;;;;;;4836862;29;20057;-87
2022/11/01 02:21:47;;;;;;;7.57;2.58;;;14.70;94.50;;;;;;4815660;29;20042;-88
2022/11/01 02:24:20;;;;;;;6.00;1.85;;;14.70;94.50;;;;;;4834120;29;20430;-88
2022/11/01 02:27:13;;;;;;;5.47;2.00;;;14.80;94.60;;;;;;4837606;29;20049;-88
2022/11/01 02:29:50;;;;;;;3.63;1.92;;;14.70;94.50;;;;;;4815823;29;20562;-88
2022/11/01 02:32:54;;;;;;;4.88;2.15;;;14.70;94.60;;;;;;4843343;29;20058;-88
2022/11/01 02:35:43;;;;;;;4.60;1.90;;;14.70;94.60;;;;;;4828724;29;20051;-88
2022/11/01 02:38:26;;;;;;;5.70;1.60;;;14.70;94.60;;;;;;4836985;29;20089;-88
2022/11/01 02:40:59;;;;;;;5.10;1.70;;;14.80;94.60;;;;;;4847060;29;20502;-88
2022/11/01 02:43:54;;;;;;;6.18;2.58;;;14.80;94.60;;;;;;4839374;29;20053;-87
2022/11/01 02:49:14;;;;;;;4.80;2.25;;;14.90;94.50;;;;;;4848994;29;20099;-88
2022/11/01 02:51:43;;;;;;;5.13;1.92;;;15.00;94.50;;;;;;4832516;29;20054;-87
2022/11/01 02:54:20;;;;;;;4.47;1.75;;;15.00;94.50;;;;;;4825665;29;20050;-87
2022/11/01 02:56:49;;;;;;;2.55;1.30;;;15.00;94.40;;;;;;4821418;29;20452;-88
2022/11/01 02:59:24;;;;;;;4.10;2.00;;;15.00;94.40;;;;;;4841834;29;20046;-87
2022/11/01 03:02:38;;;;;;;5.00;2.15;;;15.10;94.50;;;;;;4814064;29;20457;-87
2022/11/01 03:05:20;;;;;;;7.45;2.50;;;15.10;94.40;;;;;;4822615;29;20133;-88
2022/11/01 03:07:56;;;;;;;3.85;2.28;;;15.10;94.50;;;;;;4839900;29;20054;-87
2022/11/01 03:10:35;;;;;;;5.70;2.10;;;15.10;94.50;;;;;;4830319;29;20415;-87
2022/11/01 03:13:12;;;;;;;3.97;2.63;;;15.20;94.40;;;;;;4810714;29;20495;-87
2022/11/01 03:15:51;;;;;;;9.00;3.08;;;15.30;94.50;;;;;;4839106;29;20056;-87
2022/11/01 03:18:28;;;;;;;4.95;2.63;;;15.30;94.50;;;;;;4849120;29;20053;-87
2022/11/01 03:21:14;;;;;;;7.03;2.65;;;15.40;94.40;;;;;;4832002;29;20049;-88
2022/11/01 03:24:02;;;;;;;4.97;2.17;;;15.40;94.40;;;;;;4813647;29;20051;-87
2022/11/01 03:26:32;;;;;;;5.72;2.10;;;15.50;94.50;;;;;;4813542;29;20050;-87
2022/11/01 03:29:05;;;;;;;3.15;1.75;;;15.50;94.40;;;;;;4848600;29;20062;-87
2022/11/01 03:31:37;;;;;;;4.45;2.13;;;15.50;94.40;;;;;;4831769;29;20061;-87
2022/11/01 03:34:17;;;;;;;9.20;2.63;;;15.50;94.40;;;;;;4829930;29;20148;-88
2022/11/01 03:36:52;;;;;;;4.25;2.03;;;15.50;94.40;;;;;;4829907;29;20110;-88
2022/11/01 03:39:44;;;;;;;6.93;2.40;;;15.50;94.50;;;;;;4830034;29;20061;-88
2022/11/01 03:42:18;;;;;;;4.63;1.85;;;15.50;94.50;;;;;;4877970;29;20053;-88
2022/11/01 03:45:02;;;;;;;4.85;2.70;;;15.50;94.50;;;;;;4863112;29;20139;-87
2022/11/01 03:47:30;;;;;;;4.47;2.05;;;15.50;94.50;;;;;;4836235;29;20045;-88
2022/11/01 03:50:24;;;;;;;4.47;2.15;;;15.50;94.50;;;;;;4831408;29;20045;-87
2022/11/01 03:52:51;;;;;;;4.90;2.03;;;15.60;94.50;;;;;;4837370;29;20071;-88
2022/11/01 03:55:20;;;;;;;6.35;1.73;;;15.50;94.50;;;;;;4860051;29;20056;-87
2022/11/01 03:57:51;;;;;;;3.30;1.65;;;15.50;94.50;;;;;;4856772;29;20488;-88
2022/11/01 04:00:24;;;;;;;5.00;2.10;;;15.50;94.50;;;;;;4819960;29;20504;-88
2022/11/01 04:02:53;;;;;;;7.15;2.38;;;15.60;94.50;;;;;;4846642;29;20486;-88
2022/11/01 04:05:27;;;;;;;3.25;1.83;;;15.60;94.50;;;;;;4844360;29;20057;-87
2022/11/01 04:07:54;;;;;;;;;;;15.50;94.50;;;;;;4830139;29;20105;-87
2022/11/01 04:10:24;;;;;;;4.72;1.58;;;15.50;94.60;;;;;;4859939;29;19945;-87
2022/11/01 04:12:52;;;;;;;4.00;2.13;;;15.60;94.60;;;;;;4829237;29;20057;-87
2022/11/01 04:21:09;;;;;;;4.53;2.25;;;15.80;94.30;;;;;;4867224;29;20447;-88
2022/11/01 04:23:36;;;;;;;4.22;2.13;;;15.80;94.30;;;;;;4830167;29;20080;-87
2022/11/01 04:26:05;;;;;;;6.15;1.80;;;15.80;94.20;;;;;;4844521;29;20075;-87
2022/11/01 04:28:32;;;;;;;7.25;2.47;;;15.80;94.20;;;;;;4831225;29;20420;-87
2022/11/01 04:30:59;;;;;;;6.78;1.55;;;15.80;94.10;;;;;;4841299;29;20073;-87
2022/11/01 04:33:26;;;;;;;5.85;1.92;;;15.80;94.00;;;;;;4843759;29;20049;-87
2022/11/01 04:35:53;;;;;;;3.67;1.60;;;15.80;94.10;;;;;;4847596;29;20054;-87
2022/11/01 04:38:20;;;;;;;3.97;1.63;;;15.70;94.00;;;;;;4838228;29;20469;-87
2022/11/01 04:40:47;;;;;;;3.55;1.65;;;15.70;94.00;;;;;;4828757;29;20054;-87
2022/11/01 04:43:15;;;;;;;5.30;1.55;;;15.60;94.00;;;;;;4836559;29;20061;-91
2022/11/01 04:45:42;;;;;;;3.92;1.30;;;15.60;93.90;;;;;;4827417;29;20186;-91
2022/11/01 04:48:15;;;;;;;5.13;1.20;;;15.60;93.90;;;;;;4827562;29;20054;-91
2022/11/01 04:50:44;;;;;;;1.85;0.93;;;15.50;93.80;;;;;;4827795;29;20145;-92
2022/11/01 04:53:11;;;;;;;3.20;0.95;;;15.40;93.60;;;;;;4842926;29;20062;-91
2022/11/01 04:55:38;;;;;;;1.58;0.63;;;15.40;93.50;;;;;;4830661;29;20078;-92
2022/11/01 04:58:06;;;;;;;1.52;0.63;;;15.40;93.10;;;;;;4845999;29;20042;-92
2022/11/01 05:00:33;;;;;;;2.67;0.70;;;15.30;92.90;;;;;;4845692;29;20049;-91
2022/11/01 05:03:05;;;;;;;3.28;0.63;;;15.30;92.60;;;;;;4830484;29;20046;-90
2022/11/01 05:05:34;;;;;;;0.93;0.40;;;15.20;92.40;;;;;;4845592;29;20057;-91
2022/11/01 05:08:07;;;;;;;1.08;0.20;;;15.20;92.00;;;;;;4845918;29;20054;-91
2022/11/01 05:10:35;;;;;;;1.10;0.25;;;15.20;92.00;;;;;;4845740;29;20061;-91
2022/11/01 05:13:03;;;;;;;1.02;0.30;;;15.10;91.90;;;;;;4845381;29;20082;-91
2022/11/01 05:15:34;;;;;;;1.35;0.30;;;15.10;92.00;;;;;;4845282;29;20049;-92
2022/11/01 05:18:14;;;;;;;1.75;0.40;;;15.00;92.00;;;;;;4845618;29;20110;-91
2022/11/01 05:20:41;;;;;;;5.18;0.88;;;14.90;90.70;;;;;;4845565;29;20054;-92
2022/11/01 05:23:08;;;;;;;0.68;0.30;;;15.00;91.00;;;;;;4845202;29;20085;-91
2022/11/01 05:25:35;;;;;;;1.25;0.22;;;14.90;91.10;;;;;;4845198;29;20076;-92
2022/11/01 05:28:11;;;;;;;1.65;0.30;;;14.80;91.30;;;;;;4835961;29;20057;-92
2022/11/01 05:30:39;;;;;;;3.13;0.22;;;14.70;91.50;;;;;;4830745;29;20518;-92
2022/11/01 05:33:08;;;;;;;0.90;0.20;;;14.50;91.60;;;;;;4826726;29;20141;-91
2022/11/01 05:35:35;;;;;;;0.85;0.20;;;14.50;91.70;;;;;;4811671;29;20474;-92
2022/11/01 05:38:04;;;;;;;1.75;0.20;;;14.40;91.90;;;;;;4826833;29;20054;-92
2022/11/01 05:40:32;;;;;;;2.03;0.30;;;14.30;92.00;;;;;;4811783;29;20054;-91
2022/11/01 05:43:05;;;;;;;0.82;0.20;;;14.20;91.80;;;;;;4826882;29;20053;-91
2022/11/01 05:45:32;;;;;;;0.28;0.10;;;14.20;91.90;;;;;;4811422;29;20054;-92
2022/11/01 05:48:02;;;;;;;1.23;0.30;;;14.20;92.00;;;;;;4826721;29;20046;-92
2022/11/01 05:50:29;;;;;;;1.27;0.20;;;14.20;92.00;;;;;;4811776;29;20058;-93
2022/11/01 05:53:07;;;;;;;1.40;0.30;;;14.10;92.00;;;;;;4826278;29;20051;-92
2022/11/01 05:55:38;;;;;;;2.20;0.20;;;14.10;91.90;;;;;;4825748;29;20053;-92
2022/11/01 05:58:06;;;;;;;2.53;0.20;;;14.20;91.90;;;;;;4811317;29;20509;-89
2022/11/01 06:00:34;;;;;;;1.45;0.10;;;14.20;91.80;;;;;;4826392;29;20051;-92
2022/11/01 06:03:02;;;;;;;1.02;0.30;;;14.20;91.80;;;;;;4796647;29;20457;-92
2022/11/01 06:05:33;;;;;;;2.33;0.20;;;14.10;91.60;;;;;;4811080;29;20046;-91
2022/11/01 06:08:02;;;;;;;0.70;0.10;;;14.10;91.40;;;;;;4811521;29;20488;-91
2022/11/01 06:10:30;;;;;;;1.45;0.30;;;14.10;91.50;;;;;;4826621;29;20051;-91
2022/11/01 06:12:58;;;;;;;1.73;0.20;;;14.10;91.20;;;;;;4801119;29;20530;-93
2022/11/01 06:15:25;;;;;;;1.90;0.20;;;14.10;91.10;;;;;;4847429;29;20113;-87
2022/11/01 06:17:56;;;;;;;1.40;0.30;;;14.10;91.00;;;;;;4828145;29;20141;-87
2022/11/01 06:20:24;;;;;;;1.25;0.20;;;14.00;91.10;;;;;;4843124;29;20054;-86
2022/11/01 06:22:51;;;;;;;1.00;0.50;;;13.90;91.00;;;;;;4824357;29;20050;-86
2022/11/01 06:25:18;;;;;;;1.08;0.10;;;13.90;91.10;;;;;;4817152;29;20492;-87
2022/11/01 06:27:46;;;;;;;2.53;0.55;;;13.80;91.10;;;;;;4828118;29;20107;-88
2022/11/01 06:30:13;;;;;;;0.50;0.20;;;13.80;91.10;;;;;;4814282;29;20077;-89
2022/11/01 06:33:00;;;;;;;;;;;;;;;;;;;;;
2022/11/01 06:35:39;;;;;;;0.88;0.30;;;13.70;91.30;;;;;;4856082;29;20081;-92
2022/11/01 06:38:14;;;;;;;1.45;0.38;;;13.60;91.20;;;;;;4826877;29;20073;-89
2022/11/01 06:40:41;;;;;;;1.65;0.22;;;13.70;90.80;;;;;;4823235;29;20241;-89
2022/11/01 06:43:09;;;;;;;2.42;0.25;;;13.70;90.80;;;;;;4816384;29;20056;-89
2022/11/01 06:45:37;;;;;;;0.88;0.20;;;13.90;90.60;;;;;;4840026;29;20038;-90
2022/11/01 06:48:05;;;;;;;0.95;0.20;;;13.90;90.40;;;;;;4839377;29;20057;-89
2022/11/01 06:50:32;;;;;;;1.15;0.30;;;13.90;90.40;;;;;;4832717;29;20065;-89
2022/11/01 06:53:00;;;;;;;2.38;0.20;;;13.80;90.30;;;;;;4808418;29;20057;-89
2022/11/01 06:55:28;;;;;;;3.13;0.30;;;13.80;90.40;;;;;;4842017;29;20199;-89
2022/11/01 06:57:58;;;;;;;2.40;0.30;;;13.70;90.40;;;;;;4815617;29;20058;-88
2022/11/01 07:00:30;;;;;;;1.65;0.25;;;13.70;90.20;;;;;;4833324;29;20049;-89
2022/11/01 07:03:03;;;;;;;2.65;0.17;;;13.70;90.30;;;;;;4827378;29;20490;-89
2022/11/01 07:05:35;;;;;;;2.25;0.35;;;13.60;90.30;;;;;;4827201;29;20055;-88
2022/11/01 07:08:07;;;;;;;0.85;0.30;;;13.60;90.20;;;;;;4814784;29;20053;-89
2022/11/01 07:10:36;;;;;;;1.33;0.40;;;13.60;90.20;;;;;;4824935;29;20094;-89
2022/11/01 07:13:05;;;;;;;3.10;0.50;;;13.60;90.20;;;;;;4826566;29;20479;-89
2022/11/01 07:15:33;;;;;;;1.67;0.30;;;13.60;89.90;;;;;;4841251;29;20050;-88
2022/11/01 07:18:03;;;;;;;6.35;0.40;;;13.50;89.80;;;;;;4842779;29;20575;-89
2022/11/01 07:20:40;;;;;;;1.65;0.30;;;13.60;89.60;;;;;;4833815;29;20046;-89
2022/11/01 07:23:17;;;;;;;4.30;0.50;;;13.50;89.50;;;;;;4813719;29;20118;-89
2022/11/01 07:25:50;;;;;;;2.70;0.30;;;13.60;88.80;;;;;;4827692;29;20054;-89
2022/11/01 07:28:20;;;;;;;4.25;0.47;;;13.50;88.20;;;;;;4850694;29;20148;-89
2022/11/01 07:30:54;;;;;;;1.42;0.40;;;13.60;88.60;;;;;;4842745;29;20403;-89
2022/11/01 07:33:24;;;;;;;2.33;0.30;;;13.50;88.90;;;;;;4842095;29;20082;-89
2022/11/01 07:35:54;;;;;;;3.75;0.22;;;13.50;88.80;;;;;;4835084;29;20057;-89
2022/11/01 07:38:24;;;;;;;2.75;0.30;;;13.50;88.80;;;;;;4846098;29;20110;-89
2022/11/01 07:40:53;;;;;;;4.80;0.40;;;13.50;88.80;;;;;;4864392;29;20108;-89
2022/11/01 07:43:23;;;;;;;4.78;0.30;;;13.50;88.80;;;;;;4839849;29;20041;-89
2022/11/01 07:45:53;;;;;;;2.28;0.60;;;13.50;88.90;;;;;;4848222;29;20058;-90
2022/11/01 07:48:20;;;;;;;3.10;0.40;;;13.50;88.40;;;;;;4828871;29;20567;-90
2022/11/01 07:50:47;;;;;;;3.83;0.40;;;13.50;88.60;;;;;;4845356;29;20074;-89
2022/11/01 07:53:17;;;;;;;6.57;0.47;;;13.50;88.60;;;;;;4856254;29;20113;-89
2022/11/01 07:55:45;;;;;;;3.25;0.40;;;13.50;88.50;;;;;;4848550;29;20131;-89
2022/11/01 07:58:13;;;;;;;2.25;0.40;;;13.50;88.40;;;;;;4844637;29;20098;-89
2022/11/01 08:00:43;;;;;;;5.30;0.52;;;13.60;88.00;;;;;;4863529;29;20140;-89
2022/11/01 08:03:12;;;;;;;3.80;0.35;;;13.60;87.80;;;;;;4846192;29;20053;-89
2022/11/01 08:05:40;;;;;;;3.15;0.30;;;13.60;87.70;;;;;;4857546;29;20479;-89
2022/11/01 08:08:08;;;;;;;4.32;1.08;;;13.60;87.80;;;;;;4834332;29;20486;-89
2022/11/01 08:10:36;;;;;;;2.40;0.40;;;13.60;87.90;;;;;;4851534;29;20049;-89
2022/11/01 08:13:13;;;;;;;3.65;0.40;;;13.60;88.00;;;;;;4845714;29;20049;-88
2022/11/01 08:15:40;;;;;;;8.18;0.63;;;13.60;87.70;;;;;;4833271;29;20049;-87
2022/11/01 08:18:07;;;;;;;2.83;0.35;;;13.70;87.00;;;;;;4863060;29;20061;-89
2022/11/01 08:20:34;;;;;;;3.65;0.45;;;13.70;87.30;;;;;;4848068;29;20053;-88
2022/11/01 08:23:04;;;;;;;2.33;0.40;;;13.70;87.10;;;;;;4815158;29;20037;-89
2022/11/01 08:25:33;;;;;;;4.25;0.50;;;13.70;87.00;;;;;;4850653;29;20049;-89
2022/11/01 08:28:05;;;;;;;3.25;0.30;;;13.80;87.10;;;;;;4824421;29;20161;-89
2022/11/01 08:30:33;;;;;;;4.57;0.50;;;13.80;87.00;;;;;;4826323;29;20053;-89
2022/11/01 08:33:01;;;;;;;2.22;0.35;;;13.80;87.40;;;;;;4813495;29;20060;-88
2022/11/01 08:35:30;;;;;;;4.60;0.40;;;13.80;86.70;;;;;;4819392;29;20073;-89
2022/11/01 08:38:04;;;;;;;3.30;0.52;;;13.80;86.30;;;;;;4823612;29;20103;-89
2022/11/01 08:40:33;;;;;;;2.75;0.30;;;13.80;87.10;;;;;;4842097;29;20046;-89
2022/11/01 08:43:00;;;;;;;3.35;0.30;;;13.80;86.80;;;;;;4841438;29;20046;-89
2022/11/01 08:45:28;;;;;;;5.68;0.77;;;13.80;86.90;;;;;;4826952;29;20050;-88
2022/11/01 08:48:00;;;;;;;3.65;0.43;;;13.80;86.60;;;;;;4834768;29;20052;-88
2022/11/01 08:50:28;;;;;;;;;;;13.80;86.60;;;;;;4811825;29;20108;-88
2022/11/01 08:52:55;;;;;;;5.15;0.70;;;13.80;86.50;;;;;;4840187;29;19925;-88
2022/11/01 08:55:25;;;;;;;7.15;0.88;;;13.90;86.30;;;;;;4844911;29;20080;-88
2022/11/01 08:57:52;;;;;;;6.38;0.65;;;13.90;86.30;;;;;;4830949;29;20427;-88
2022/11/01 09:00:20;;;;;;;2.00;0.30;;;13.90;86.10;;;;;;4836087;29;20050;-89
2022/11/01 09:02:50;;;;;;;3.72;0.40;;;14.00;86.10;;;;;;4831513;29;20062;-88
2022/11/01 09:05:18;;;;;;;7.53;1.45;;;14.00;85.80;;;;;;4844010;29;20131;-89
2022/11/01 09:07:45;;;;;;;4.75;0.80;;;14.10;85.70;;;;;;4838987;29;20056;-89
2022/11/01 09:10:12;;;;;;;6.22;1.10;;;14.10;85.40;;;;;;4846526;29;20141;-89
2022/11/01 09:12:40;;;;;;;3.83;0.50;;;14.10;85.00;;;;;;4847339;29;20057;-89
2022/11/01 09:15:07;;;;;;;3.53;0.73;;;14.20;84.30;;;;;;4833801;29;20066;-89
2022/11/01 09:17:34;;;;;;;5.00;0.52;;;14.20;84.20;;;;;;4807818;29;20126;-88
2022/11/01 09:20:05;;;;;;;4.30;0.50;;;14.20;84.30;;;;;;4813980;29;20050;-89
2022/11/01 09:22:32;;;;;;;7.43;0.85;;;14.20;84.50;;;;;;4841370;29;20156;-89
2022/11/01 09:24:59;;;;;;;3.53;0.40;;;14.20;84.60;;;;;;4831878;29;20054;-89
2022/11/01 09:27:26;;;;;;;4.53;0.65;;;14.20;84.60;;;;;;4831134;29;20058;-89
2022/11/01 09:29:53;;;;;;;7.60;1.15;;;14.30;84.70;;;;;;4855904;29;20104;-89
2022/11/01 09:32:20;;;;;;;5.55;0.57;;;14.30;84.90;;;;;;4847799;29;20058;-90
2022/11/01 09:34:48;;;;;;;2.80;0.45;;;14.30;85.10;;;;;;4843842;29;20053;-89
2022/11/01 09:37:16;;;;;;;4.40;0.70;;;14.30;85.00;;;;;;4860785;29;20052;-88
2022/11/01 09:39:43;;;;;;;6.05;1.08;;;14.30;84.20;;;;;;4831695;29;20054;-88
2022/11/01 09:42:31;;;;;;;6.80;1.15;;;14.30;83.90;;;;;;4847623;29;20203;-89
2022/11/01 09:45:06;;;;;;;4.15;0.65;;;14.40;83.90;;;;;;4859625;29;20073;-88
2022/11/01 09:47:35;;;;;;;9.07;0.70;;;14.40;84.20;;;;;;4863190;29;20049;-87
2022/11/01 09:50:17;;;;;;;6.00;0.60;;;14.40;84.00;;;;;;4830478;29;20080;-89
2022/11/01 09:52:44;;;;;;;4.93;0.50;;;14.40;83.70;;;;;;4832212;29;20042;-93
2022/11/01 09:55:20;;;;;;;6.25;1.27;;;14.40;83.50;;;;;;4838834;29;20862;-85
2022/11/01 09:58:03;;;;;;;6.63;1.20;;;14.40;83.80;;;;;;4861791;29;20049;-90
2022/11/01 10:00:48;;;;;;;5.65;0.57;;;14.50;83.50;;;;;;4837565;29;20080;-94
2022/11/01 10:03:59;;;;;;;4.90;0.60;;;14.50;83.60;;;;;;4863256;29;20048;-92
2022/11/01 10:06:37;;;;;;;6.60;0.82;;;14.60;83.50;;;;;;4849398;29;20502;-90
2022/11/01 10:13:43;;;;;;;9.10;0.97;;;14.60;82.80;;;;;;4845663;29;20526;-90
2022/11/01 10:16:25;;;;;;;5.95;0.70;;;14.70;81.30;;;;;;4822398;29;20054;-92
2022/11/01 10:19:16;;;;;;;6.32;0.85;;;14.70;81.30;;;;;;4854581;29;20054;-91
2022/11/01 10:21:49;;;;;;;4.82;0.77;;;14.80;81.50;;;;;;4855016;29;20046;-89
2022/11/01 10:24:24;;;;;;;5.45;0.50;;;14.70;81.50;;;;;;4866338;29;20541;-88
2022/11/01 10:26:58;;;;;;;4.32;0.55;;;14.80;81.70;;;;;;4855818;29;20148;-88
2022/11/01 10:30:07;;;;;;;7.10;0.50;;;14.90;81.70;;;;;;4834315;29;20054;-86
2022/11/01 10:32:53;;;;;;;4.60;0.82;;;14.90;81.40;;;;;;4783091;29;20079;-88
2022/11/01 10:35:36;;;;;;;4.47;0.60;;;14.90;81.70;;;;;;4793992;29;20108;-88
2022/11/01 10:38:38;;;;;;;2.92;0.50;;;15.00;80.80;;;;;;4807903;29;20106;-89
2022/11/01 10:41:28;;;;;;;10.85;1.02;;;15.00;80.60;;;;;;4840991;29;20050;-88
2022/11/01 10:44:03;;;;;;;6.03;0.77;;;15.00;80.40;;;;;;4824727;29;20141;-88
2022/11/01 10:46:38;;;;;;;5.63;0.90;;;15.00;79.80;;;;;;4828139;29;20484;-88
2022/11/01 10:49:16;;;;;;;5.80;1.08;;;15.00;79.90;;;;;;4827585;29;20045;-88
2022/11/01 10:51:45;;;;;;;4.18;0.60;;;15.00;80.00;;;;;;4845889;29;20055;-88
2022/11/01 10:54:19;;;;;;;7.82;1.02;;;15.00;80.30;;;;;;4836694;29;20058;-88
2022/11/01 10:56:53;;;;;;;9.07;0.80;;;15.00;81.00;;;;;;4820012;29;20053;-88
2022/11/01 10:59:26;;;;;;;7.63;0.73;;;15.00;80.60;;;;;;4809541;29;20078;-89
2022/11/01 11:01:54;;;;;;;1.85;0.45;;;15.00;80.60;;;;;;4812611;29;20576;-87
2022/11/01 11:04:32;;;;;;;4.13;0.30;;;15.10;80.70;;;;;;4829585;29;20072;-89
2022/11/01 11:07:20;;;;;;;6.95;0.60;;;15.10;80.70;;;;;;4844116;29;20133;-95
2022/11/01 11:09:50;;;;;;;5.40;0.52;;;15.10;80.90;;;;;;4844183;29;20582;-95
2022/11/01 11:12:27;;;;;;;4.75;0.50;;;15.10;80.70;;;;;;4827686;29;20120;-92
2022/11/01 11:15:03;;;;;;;7.53;0.75;;;15.10;81.00;;;;;;4814746;29;20145;-88
2022/11/01 11:17:37;;;;;;;2.70;0.40;;;15.20;80.90;;;;;;4809511;29;20422;-89
2022/11/01 11:20:07;;;;;;;6.40;0.50;;;15.20;81.00;;;;;;4840774;29;20042;-89
2022/11/01 11:22:42;;;;;;;5.85;0.47;;;15.20;80.90;;;;;;4823199;29;20121;-89
2022/11/01 11:29:48;;;;;;;2.08;0.40;;;15.20;81.40;;;;;;4822537;29;20064;-94
2022/11/01 11:33:06;;;;;;;2.95;0.60;;;15.20;81.70;;;;;;4779515;29;20051;-94
2022/11/01 11:36:50;;;;;;;;;;;;;;;;;;;;;
2022/11/01 11:48:23;;;;;;;4.15;0.50;;;15.30;81.30;;;;;;4636957;31;20185;-96
2022/11/01 11:51:20;;;;;;;8.60;1.33;;;15.40;80.50;;;;;;4661905;30;20054;-94
2022/11/01 11:54:09;;;;;;;3.22;0.90;;;15.40;80.40;;;;;;4684700;30;20086;-96
2022/11/01 11:56:41;;;;;;;5.40;0.50;;;15.40;80.30;;;;;;4738424;29;20055;-89
2022/11/01 11:59:27;;;;;;;4.68;0.47;;;15.40;80.60;;;;;;4791944;29;20055;-87
2022/11/01 12:01:58;;;;;;;3.88;0.57;;;15.50;80.70;;;;;;4823266;29;20054;-87
2022/11/01 12:04:53;;;;;;;3.83;0.60;;;15.50;80.30;;;;;;4822583;29;20141;-88
2022/11/01 12:07:22;;;;;;;3.80;0.57;;;15.50;80.20;;;;;;4822482;29;20073;-85
2022/11/01 12:09:49;;;;;;;6.38;0.63;;;15.60;79.90;;;;;;4803933;29;20137;-86
2022/11/01 12:12:39;;;;;;;3.63;0.55;;;15.60;79.20;;;;;;4801409;29;20062;-93
2022/11/01 12:15:30;;;;;;;3.17;0.38;;;15.70;79.00;;;;;;4827327;29;20058;-89
2022/11/01 12:18:15;;;;;;;4.78;0.73;;;15.70;79.40;;;;;;4828063;29;20054;-91
2022/11/01 12:26:51;;;;;;;3.78;0.60;;;15.70;79.60;;;;;;4836806;29;20156;-91
2022/11/01 12:29:25;;;;;;;1.83;0.35;;;15.80;79.20;;;;;;4793518;29;20144;-95
2022/11/01 12:32:23;;;;;;;3.50;0.60;;;15.80;79.30;;;;;;4860170;29;20083;-94
2022/11/01 12:43:56;;;;;;;6.60;0.68;;;15.90;78.80;;;;;;4841793;29;20105;-93
2022/11/01 12:51:30;;;;;;;1.85;0.20;;;15.90;78.90;;;;;;4800968;29;20046;-94
2022/11/01 12:59:14;;;;;;;4.20;0.40;;;16.20;78.80;;;;;;4817576;29;20086;-89
2022/11/01 13:02:29;;;;;;;3.80;0.30;;;16.30;78.50;;;;;;4832008;29;20047;-90
2022/11/01 13:05:11;;;;;;;3.03;0.40;;;16.40;78.00;;;;;;4820301;29;20436;-89
2022/11/01 13:07:42;;;;;;;4.93;0.30;;;16.50;78.20;;;;;;4847673;29;20049;-92
2022/11/01 13:10:27;;;;;;;1.88;0.38;;;16.40;78.30;;;;;;4849496;29;20073;-92
2022/11/01 13:13:24;;;;;;;3.60;0.93;;;16.50;78.50;;;;;;4864059;29;20510;-93
2022/11/01 13:16:34;;;;;;;2.05;0.45;;;16.50;78.40;;;;;;4861585;29;20045;-92
2022/11/01 13:19:23;;;;;;;4.25;0.40;;;16.60;78.30;;;;;;4842724;29;20407;-90
2022/11/01 13:22:35;;;;;;;9.38;0.60;;;16.70;78.30;;;;;;4848077;29;20053;-89
2022/11/01 13:25:11;;;;;;;2.88;0.50;;;16.70;77.60;;;;;;4861451;29;20401;-90
2022/11/01 13:27:42;;;;;;;3.33;0.32;;;16.70;77.80;;;;;;4851031;29;20053;-91
2022/11/01 13:30:20;;;;;;;3.20;0.40;;;16.70;77.20;;;;;;4843238;29;20058;-91
2022/11/01 13:33:13;;;;;;;4.32;0.40;;;16.70;77.10;;;;;;4853290;29;20097;-95
2022/11/01 13:36:09;;;;;;;3.03;0.40;;;16.80;77.00;;;;;;4865644;29;20521;-92
2022/11/01 13:48:00;;;;;;;1.27;0.35;;;16.60;77.00;;;;;;4753317;30;20037;-90
2022/11/01 13:50:47;;;;;;;4.90;0.40;;;16.50;77.40;;;;;;4791579;29;20055;-94
2022/11/01 13:53:22;;;;;;;5.80;0.47;;;16.40;77.20;;;;;;4796322;29;20069;-90
2022/11/01 13:56:34;;;;;;;1.70;0.30;;;16.30;77.10;;;;;;4779656;29;20047;-95
2022/11/01 13:59:24;;;;;;;2.90;0.32;;;16.30;77.50;;;;;;4863895;29;20050;-90
2022/11/01 14:01:51;;;;;;;3.38;0.30;;;16.20;78.00;;;;;;4842677;29;20048;-89
2022/11/01 14:04:22;;;;;;;3.45;0.20;;;16.10;78.30;;;;;;4863058;29;20054;-91
2022/11/01 14:07:14;;;;;;;2.22;0.35;;;16.10;78.10;;;;;;4847861;29;20479;-94
2022/11/01 14:14:08;;;;;;;3.33;0.40;;;16.00;78.40;;;;;;4835869;29;20042;-95
2022/11/01 14:17:22;;;;;;;4.05;0.40;;;16.00;77.70;;;;;;4866494;29;20049;-95
2022/11/01 14:19:58;;;;;;;3.28;0.60;;;16.00;77.80;;;;;;4880126;29;20048;-90
2022/11/01 14:22:43;;;;;;;2.47;0.32;;;16.10;77.20;;;;;;4869371;29;20052;-96
2022/11/01 14:25:15;;;;;;;3.00;0.50;;;16.20;77.20;;;;;;4869373;29;20076;-93
2022/11/01 14:27:46;;;;;;;3.13;0.30;;;16.20;77.40;;;;;;4855298;29;20042;-88
2022/11/01 14:30:22;;;;;;;2.88;0.30;;;16.10;77.50;;;;;;4866683;29;20062;-88
2022/11/01 14:32:53;;;;;;;4.38;0.40;;;16.10;77.80;;;;;;4861588;29;20061;-87